Flight Track Log - Related Links

Times and Time Zones

All times are in EDT time to prevent confusion due to time zone crossing. See the EJA933 flight status page for this flight to view local times or setup timezone preferences in your user account.

Time Position Orientation Groundspeed Altitude Reporting Facility
EDT Latitude Longitude Course Direction KTS MPH feet Rate Location/Type
Sun 04:13:21 PM 30.5356 -110.9381 359° North 526 605 40,000  Level Albuquerque Center
Sun 04:14:23 PM 30.6828 -110.9411 359° North 529 609 40,000  Level Albuquerque Center
Sun 04:15:25 PM 30.8603 -110.9431 359° North 531 611 40,000  Level Albuquerque Center
Sun 04:16:26 PM 31.0078 -110.9458 359° North 531 611 40,000  Level Albuquerque Center
Sun 04:17:28 PM 31.1558 -110.9481 359° North 532 612 40,000  Level Albuquerque Center
Sun 04:18:30 PM 31.3042 -110.9503 359° North 532 612 40,000 48 Level Albuquerque Center
Sun 04:19:32 PM 31.4558 -110.9422 North 543 625 40,100 387 Climbing Albuquerque Center
Sun 04:20:34 PM 31.5986 -110.9358 North 536 617 40,800 774 Climbing Albuquerque Center
Sun 04:21:36 PM 31.7642 -110.9314 North 525 604 41,700 774 Climbing Albuquerque Center
Sun 04:22:38 PM 31.9172 -110.9244 North 521 600 42,400 629 Climbing Albuquerque Center
Sun 04:23:40 PM 32.0617 -110.9178 North 520 598 43,000 293 Climbing Albuquerque Center
Sun 04:24:41 PM 32.1917 -110.9664 342° North 498 573 43,000  Level Albuquerque Center
Sun 04:25:43 PM 32.3136 -111.0381 334° Northwest 491 565 43,000  Level Albuquerque Center
Sun 04:26:45 PM 32.4353 -111.1114 333° Northwest 491 565 43,000  Level Albuquerque Center
Sun 04:27:47 PM 32.5844 -111.1983 334° Northwest 496 571 43,000  Level Albuquerque Center
Sun 04:28:49 PM 32.7064 -111.2725 333° Northwest 495 570 43,000  Level Albuquerque Center
Sun 04:29:51 PM 32.8308 -111.3428 335° Northwest 495 570 43,000  Level Albuquerque Center
Sun 04:30:53 PM 32.9539 -111.4169 333° Northwest 496 571 43,000  Level Albuquerque Center
Sun 04:31:55 PM 33.0781 -111.4919 333° Northwest 499 574 43,000  Level Albuquerque Center
Sun 04:32:56 PM 33.2022 -111.5647 334° Northwest 497 572 43,000  Level Albuquerque Center
Sun 04:33:58 PM 33.3244 -111.6389 333° Northwest 495 570 43,000  Level Albuquerque Center
Sun 04:35:00 PM 33.4719 -111.7297 333° Northwest 495 570 43,000  Level Albuquerque Center
Sun 04:36:02 PM 33.5944 -111.8028 334° Northwest 492 566 43,000  Level Albuquerque Center
Sun 04:37:04 PM 33.7258 -111.8817 333° Northwest 488 562 43,000  Level Albuquerque Center
Sun 04:38:06 PM 33.8472 -111.9550 333° Northwest 490 564 43,000  Level Albuquerque Center
Sun 04:39:08 PM 33.9647 -112.0283 333° Northwest 492 566 43,000  Level Albuquerque Center
Sun 04:40:10 PM 34.0889 -112.1039 333° Northwest 492 566 43,000  Level Albuquerque Center
Sun 04:41:11 PM 34.2117 -112.1781 333° Northwest 491 565 43,000  Level Albuquerque Center
Sun 04:42:13 PM 34.3339 -112.2533 333° Northwest 492 566 43,000  Level Albuquerque Center
Sun 04:43:15 PM 34.4553 -112.3281 333° Northwest 490 564 43,000  Level Albuquerque Center
Sun 04:44:17 PM 34.5892 -112.4108 333° Northwest 491 565 43,000  Level Albuquerque Center
Sun 04:45:19 PM 34.7100 -112.4850 333° Northwest 489 563 43,000  Level Albuquerque Center
Sun 04:46:21 PM 34.8611 -112.5628 337° Northwest 493 567 43,000  Level Albuquerque Center
Sun 04:47:23 PM 34.9872 -112.6264 338° Northwest 493 567 43,000  Level Albuquerque Center
Sun 04:48:24 PM 35.1125 -112.6917 337° Northwest 493 567 43,000  Level Albuquerque Center
Sun 04:49:26 PM 35.2378 -112.7561 337° Northwest 494 568 43,000  Level Albuquerque Center
Sun 04:50:28 PM 35.3828 -112.8325 337° Northwest 495 570 43,000  Level Albuquerque Center
Sun 04:51:11 PM 35.4617 -112.8725 338° Northwest 494 568 43,000  Level Los Angeles Center
Sun 04:52:13 PM 35.6006 -112.9467 337° Northwest 495 570 43,000  Level Los Angeles Center
Sun 04:53:15 PM 35.7344 -113.0161 337° Northwest 499 574 43,000  Level Los Angeles Center
Sun 04:54:17 PM 35.8606 -113.0833 337° Northwest 499 574 43,000  Level Los Angeles Center
Sun 04:55:19 PM 35.9983 -113.1564 337° Northwest 500 575 43,000  Level Los Angeles Center
Sun 04:56:21 PM 36.1258 -113.2247 337° Northwest 498 573 43,000  Level Los Angeles Center
Sun 04:57:23 PM 36.2644 -113.2986 337° Northwest 497 572 43,000  Level Los Angeles Center
Sun 04:58:25 PM 36.3917 -113.3656 337° Northwest 497 572 43,000  Level Los Angeles Center
Sun 04:59:28 PM 36.5058 -113.4283 336° Northwest 491 565 43,000  Level Los Angeles Center
Sun 05:00:30 PM 36.6586 -113.5094 337° Northwest 492 566 43,000  Level Los Angeles Center
Sun 05:01:32 PM 36.7864 -113.5803 336° Northwest 498 573 43,000  Level Los Angeles Center
Sun 05:02:34 PM 36.9144 -113.6497 337° Northwest 499 574 43,000  Level Los Angeles Center
Sun 05:03:36 PM 37.0431 -113.7208 336° Northwest 501 577 43,000  Level Los Angeles Center
Sun 05:04:38 PM 37.1722 -113.7914 336° Northwest 503 579 43,000  Level Los Angeles Center
Sun 05:05:40 PM 37.3017 -113.8633 336° Northwest 505 581 43,000  Level Los Angeles Center
Sun 05:06:42 PM 37.4564 -113.9483 336° Northwest 505 581 43,000  Level Los Angeles Center
Sun 05:07:45 PM 37.5839 -114.0200 336° Northwest 501 577 43,000  Level Los Angeles Center
Sun 05:08:47 PM 37.7117 -114.0911 336° Northwest 499 574 43,000  Level Los Angeles Center
Sun 05:09:49 PM 37.8383 -114.1625 336° Northwest 497 572 43,000  Level Los Angeles Center
Sun 05:10:43 PM 37.9400 -114.2189 336° Northwest 498 573 43,000  Level Salt Lake Center
Sun 05:11:44 PM 38.0919 -114.3053 336° Northwest 497 572 43,000  Level Salt Lake Center
Sun 05:12:46 PM 38.2183 -114.3786 335° Northwest 498 573 43,000  Level Salt Lake Center
Sun 05:13:48 PM 38.3508 -114.4425 339° North 504 580 43,000  Level Salt Lake Center
Sun 05:14:50 PM 38.4875 -114.4981 342° North 510 587 43,000  Level Salt Lake Center
Sun 05:15:52 PM 38.6239 -114.5575 341° North 515 593 43,000  Level Salt Lake Center
Sun 05:16:54 PM 38.7619 -114.6122 343° North 516 594 43,000  Level Salt Lake Center
Sun 05:17:55 PM 38.8975 -114.6719 341° North 513 590 43,000  Level Salt Lake Center
Sun 05:18:57 PM 39.0583 -114.7439 341° North 511 588 43,000  Level Salt Lake Center
Sun 05:19:59 PM 39.1767 -114.7944 342° North 512 589 43,000  Level Salt Lake Center
Sun 05:21:01 PM 39.3261 -114.8733 338° Northwest 514 592 43,000  Level Salt Lake Center
Sun 05:22:03 PM 39.4356 -114.9661 327° Northwest 500 575 43,000  Level Salt Lake Center
Sun 05:23:05 PM 39.5658 -115.0764 327° Northwest 498 573 43,000  Level Salt Lake Center
Sun 05:24:07 PM 39.6742 -115.1725 326° Northwest 493 567 43,000  Level Salt Lake Center
Sun 05:25:09 PM 39.8028 -115.2836 326° Northwest 496 571 43,000  Level Salt Lake Center
Sun 05:26:11 PM 39.9122 -115.3814 326° Northwest 497 572 43,000  Level Salt Lake Center
Sun 05:27:13 PM 40.0392 -115.4933 326° Northwest 495 570 43,000  Level Salt Lake Center
Sun 05:28:14 PM 40.1478 -115.5897 326° Northwest 494 568 43,000  Level Salt Lake Center
Sun 05:29:16 PM 40.2747 -115.7031 326° Northwest 495 570 43,000  Level Salt Lake Center
Sun 05:30:18 PM 40.3828 -115.7994 326° Northwest 493 567 43,000  Level Salt Lake Center
Sun 05:31:20 PM 40.5061 -115.9139 325° Northwest 490 564 43,000  Level Salt Lake Center
Sun 05:32:22 PM 40.6144 -116.0106 326° Northwest 493 567 43,000  Level Salt Lake Center
Sun 05:33:24 PM 40.7406 -116.1244 326° Northwest 495 570 43,000  Level Salt Lake Center
Sun 05:34:26 PM 40.8472 -116.2231 325° Northwest 494 568 43,000  Level Salt Lake Center
Sun 05:35:28 PM 40.9736 -116.3381 326° Northwest 495 570 43,000  Level Salt Lake Center
Sun 05:36:30 PM 41.0828 -116.4383 325° Northwest 499 574 43,000  Level Salt Lake Center
Sun 05:37:32 PM 41.1903 -116.5392 325° Northwest 498 573 43,000  Level Salt Lake Center
Sun 05:38:34 PM 41.3164 -116.6550 325° Northwest 494 568 43,000  Level Salt Lake Center
Sun 05:39:36 PM 41.4253 -116.7564 325° Northwest 499 574 43,000  Level Salt Lake Center
Sun 05:40:38 PM 41.5519 -116.8758 325° Northwest 499 574 43,000  Level Salt Lake Center
Sun 05:41:40 PM 41.6606 -116.9772 325° Northwest 499 574 43,000  Level Salt Lake Center
Sun 05:42:41 PM 41.7889 -117.0950 326° Northwest 501 577 43,000  Level Salt Lake Center
Sun 05:43:43 PM 41.8967 -117.2006 324° Northwest 502 578 43,000  Level Salt Lake Center
Sun 05:44:45 PM 42.0236 -117.3211 325° Northwest 500 575 43,000  Level Salt Lake Center
Sun 05:45:47 PM 42.1319 -117.4264 324° Northwest 501 577 43,000  Level Salt Lake Center
Sun 05:46:49 PM 42.2517 -117.5392 325° Northwest 502 578 43,000  Level Salt Lake Center
Sun 05:47:51 PM 42.3794 -117.6642 324° Northwest 506 582 43,000  Level Salt Lake Center
Sun 05:48:53 PM 42.4886 -117.7692 325° Northwest 503 579 43,000  Level Salt Lake Center
Sun 05:49:55 PM 42.6028 -117.8667 328° Northwest 506 582 43,000  Level Salt Lake Center
Sun 05:50:57 PM 42.7589 -117.9242 345° North 519 597 43,000  Level Salt Lake Center
Sun 05:51:58 PM 42.8947 -117.9692 346° North 524 603 43,000  Level Salt Lake Center
Sun 05:53:00 PM 43.0542 -118.0219 346° North 527 606 43,000  Level Salt Lake Center
Sun 05:54:02 PM 43.1894 -118.0667 346° North 523 602 43,000  Level Salt Lake Center
Sun 05:55:04 PM 43.3486 -118.1200 346° North 526 605 43,000  Level Salt Lake Center
Sun 05:56:06 PM 43.4847 -118.1658 346° North 525 604 43,000  Level Salt Lake Center
Sun 05:57:08 PM 43.6200 -118.2114 346° North 523 602 43,000  Level Salt Lake Center
Sun 05:58:09 PM 43.7794 -118.2658 346° North 526 605 43,000  Level Salt Lake Center
Sun 05:59:11 PM 43.9144 -118.3114 346° North 521 600 43,000  Level Salt Lake Center
Sun 06:00:13 PM 44.0661 -118.3622 346° North 526 605 43,000  Level Salt Lake Center
Sun 06:01:11 PM 44.2047 -118.4106 346° North 521 600 43,000  Level Seattle Center
Sun 06:02:12 PM 44.3456 -118.4589 346° North 522 601 43,000  Level Seattle Center
Sun 06:03:18 PM 44.4889 -118.5092 346° North 528 608 43,000  Level Salt Lake Center
Sun 06:04:14 PM 44.6289 -118.5583 346° North 523 602 43,000  Level Seattle Center
Sun 06:05:15 PM 44.7697 -118.6075 346° North 525 604 43,000  Level Seattle Center
Sun 06:06:16 PM 44.9100 -118.6575 346° North 523 602 43,000  Level Seattle Center
Sun 06:07:17 PM 45.0500 -118.7072 346° North 523 602 43,000  Level Seattle Center
Sun 06:08:18 PM 45.1900 -118.7575 346° North 523 602 43,000  Level Seattle Center
Sun 06:09:19 PM 45.3583 -118.8175 346° North 524 603 43,000  Level Seattle Center
Sun 06:10:20 PM 45.4981 -118.8678 346° North 523 602 43,000  Level Seattle Center
Sun 06:11:21 PM 45.6375 -118.9189 346° North 522 601 43,000  Level Seattle Center
Sun 06:12:22 PM 45.7781 -118.9614 348° North 522 601 43,000  Level Seattle Center
Sun 06:13:24 PM 45.9214 -118.9950 351° North 522 601 43,000  Level Seattle Center
Sun 06:14:25 PM 46.0661 -119.0281 351° North 528 608 43,000  Level Seattle Center
Sun 06:15:26 PM 46.2092 -119.0644 350° North 526 605 43,000  Level Seattle Center
Sun 06:16:27 PM 46.3531 -119.0997 350° North 526 605 43,000  Level Seattle Center
Sun 06:17:28 PM 46.4967 -119.1356 350° North 528 608 43,000  Level Seattle Center
Sun 06:18:29 PM 46.6694 -119.1781 350° North 526 605 43,000  Level Seattle Center
Sun 06:19:30 PM 46.8064 -119.2119 350° North 524 603 43,000  Level Seattle Center
Sun 06:20:31 PM 46.9497 -119.2492 350° North 523 602 43,000  Level Seattle Center
Sun 06:21:32 PM 47.0933 -119.2847 350° North 524 603 43,000  Level Seattle Center
Sun 06:22:33 PM 47.2383 -119.3156 352° North 527 606 43,000  Level Seattle Center
Sun 06:23:34 PM 47.3853 -119.3200 359° North 528 608 43,000  Level Seattle Center
Sun 06:24:36 PM 47.5322 -119.3239 359° North 529 609 43,000 -49 Level Seattle Center
Sun 06:25:37 PM 47.6786 -119.3256 360° North 528 608 42,900 -148 Descending Seattle Center
Sun 06:26:38 PM 47.8258 -119.3289 359° North 530 610 42,700 -1,230 Descending Seattle Center
Sun 06:27:39 PM 47.9736 -119.3333 359° North 531 611 40,400 -2,705 Descending Seattle Center
Sun 06:28:40 PM 48.1453 -119.3350 360° North 517 595 37,200 -2,902 Descending Seattle Center
Sun 06:29:41 PM 48.2836 -119.3381 359° North 504 580 34,500 -2,705 Descending Seattle Center
Sun 06:30:42 PM 48.4222 -119.3417 359° North 500 575 31,700 -2,754 Descending Seattle Center
Sun 06:31:43 PM 48.5658 -119.3456 359° North 508 585 28,900 -2,754 Descending Seattle Center
Sun 06:32:44 PM 48.7097 -119.3478 359° North 516 594 26,100 -2,852 Descending Seattle Center
Sun 06:33:45 PM 48.8481 -119.3472 360° North 509 586 23,100 -3,310 Descending Seattle Center
Sun 06:34:40 PM 48.9500 -119.3167 11° North 460 529 19,700 -3,548 Descending Vancouver Center
Sun 06:35:40 PM 49.0667 -119.3333 355° North 430 495 16,300 -2,850 Descending Vancouver Center
Sun 06:36:40 PM 49.1833 -119.3333 360° North 400 460 14,000 -2,100 Descending Vancouver Center
Sun 06:37:40 PM 49.2667 -119.3500 353° North 370 426 12,100 -2,000 Descending Vancouver Center
Sun 06:38:40 PM 49.3667 -119.3333 North 330 380 10,000 -1,050 Descending Vancouver Center
Sun 06:39:40 PM 49.4500 -119.3333 360° North 310 357 10,000  Level Vancouver Center
Sun 06:40:40 PM 49.5333 -119.3500 353° North 300 345 10,000 -800 Level Vancouver Center
Sun 06:41:40 PM 49.6000 -119.3333 North 270 311 8,400 -1,100 Descending Vancouver Center
Sun 06:42:40 PM 49.6667 -119.3667 342° North 240 276 7,800 -650 Descending Vancouver Center
Sun 06:43:40 PM 49.7333 -119.3500 North 220 253 7,100 -1,100 Descending Vancouver Center
Sun 06:44:40 PM 49.7833 -119.3500 360° North 200 230 5,600 -1,450 Descending Vancouver Center
Sun 06:45:40 PM 49.8333 -119.3500 360° North 170 196 4,200 -1,400 Descending Vancouver Center
Sun 06:46:40 PM 49.8667 -119.3500 360° North 150 173 2,800 -1,150 Descending Vancouver Center
Sun 06:47:40 PM 49.9000 -119.3667 342° North 140 161 1,900 -700 Descending Vancouver Center
Sun 06:48:40 PM 49.9333 -119.3667 360° North 110 127 1,400 -250 Descending Vancouver Center
Sun 06:49:40 PM 49.9500 -119.3667 360° North 20 23 1,400  Level Vancouver Center

Login

Don't have an account? Register now (free) for customized features, flight alerts, and more!